メインページ
METAR-TAF:

METAR-TAF

空港 :

カイエンヌ・フェリックス・エブエ国際空港

カイエンヌ, フランス領ギアナ

緯度: 04-50N, 経度: 052-22W, 海抜: 105m

現時点の気象観測

当レポートは16分前の05:30(UTC)に作成
南/南西の風 1kt
気温 26°C
湿度 94%
気圧 1010 hPa
視程10km以上
高度1600ftの千切れ雲あり
高度2200ftの千切れ雲あり
高度3600ftの曇り

METAR: SOCA 160530Z AUTO 21001KT 9999 BKN016 BKN022 OVC036 26/25 Q1010 TEMPO 3000 SHRA SCT013TCU

時間: 02:46 (05:46 UTC)

予報

当レポートは46分前の05:00(UTC)に作成
予報は16日の 06時(UTC)から 17日の 06時(UTC)まで有効
変向風 3kt
視程10km以上
高度1500ftの千切れ雲あり
高度4000ftの千切れ雲あり
16日の 06時(UTC)から 16日の 18時(UTC)まで一時的に
視程: 3000m
高度1300ftの雲は散在している, 塔状積雲.
にわか雨
16日の 12時(UTC)から 16日の 13時(UTC)まで徐々に
の風 12kt
16日の 23時(UTC)から 16日の 24時(UTC)まで徐々に
変向風 3kt
17日の 00時(UTC)から 17日の 06時(UTC)まで一時的に
視程: 2000m
高度1000ftの雲は散在している, 塔状積雲.
高度1500ftの千切れ雲あり
にわか雨

TAF: SOCA 160500Z 1606/1706 VRB03KT 9999 BKN015 BKN040 TEMPO 1606/1618 3000 SHRA SCT013TCU BECMG 1612/1613 08012KT BECMG 1623/1624 VRB03KT TEMPO 1700/1706 2000 SHRA SCT010TCU BKN015

4,000以上の空港の気象観測と天気予報(METAR報とTAF報)

利用可能な観測所は地図上に黄色い丸と赤い丸で示す。

丸の上にカーソルを重ねると観測所名を参照できる。

次にクリックすると気象観測と天気予報を参照できる。

マップの切り替え:黒色「×」印の緑ボタンをクリックして拡大、「-」印の緑ボタンをクリックして縮小、緑色の三角印をクリックして隣りの地図に切り替え


METAR-TAF: